Terminal Aerodrome Forecast
Issued by NWS Cleveland, OH

Home | Current Version | Previous Version | Graphics & Text | Print | Product List | Glossary On
Versions: 1 2 3 4 5 6 7 8 9 10 11 12 13 14 15 16 17 18 19 20 21 22 23
924
FTUS41 KCLE 240524
TAFERI
TAF
KERI 240524Z 2406/2506 15005KT P6SM OVC150
     FM241200 14010KT P6SM BKN070
     FM241800 10010G20KT P6SM BKN050
     FM250000 10015G25KT P6SM -SHRA OVC035=

USA.gov is the U.S. government's official web portal to all federal, state and local government web resources and services.